createdAt,value
2023-01-05T00:02:51.918Z,1.20
2023-01-05T00:07:44.595Z,1.10
2023-01-05T00:12:54.169Z,0.95
2023-01-05T00:18:02.772Z,1.38
2023-01-05T00:22:55.694Z,1.30
2023-01-05T00:27:50.803Z,1.33
2023-01-05T00:32:43.070Z,1.30
2023-01-05T00:37:35.265Z,1.30
2023-01-05T00:42:28.158Z,1.40
2023-01-05T00:47:19.371Z,1.33
2023-01-05T00:52:10.270Z,1.27
2023-01-05T00:57:01.167Z,1.20
2023-01-05T01:01:55.721Z,1.40
2023-01-05T01:06:47.634Z,2.75
2023-01-05T01:11:38.816Z,1.40
2023-01-05T01:16:29.810Z,1.03
2023-01-05T01:21:22.190Z,1.20
2023-01-05T01:26:14.532Z,1.20
2023-01-05T01:31:07.220Z,1.37
2023-01-05T01:35:58.473Z,1.23
2023-01-05T01:40:50.867Z,1.30
2023-01-05T01:45:41.911Z,1.00
2023-01-05T01:50:35.916Z,0.90
2023-01-05T01:55:28.540Z,1.40
2023-01-05T02:00:21.730Z,1.60
2023-01-05T02:05:17.881Z,2.00
2023-01-05T02:10:09.273Z,1.38
2023-01-05T02:15:13.069Z,2.22
2023-01-05T02:20:37.110Z,1.30
2023-01-05T02:26:01.770Z,1.65
2023-01-05T02:31:10.428Z,2.03
2023-01-05T02:36:09.802Z,1.60
2023-01-05T02:41:08.581Z,1.40
2023-01-05T02:46:02.776Z,1.95
2023-01-05T02:51:01.242Z,1.50
2023-01-05T02:55:56.762Z,2.17
2023-01-05T03:00:56.932Z,1.40
2023-01-05T03:05:54.998Z,1.60
2023-01-05T03:11:14.802Z,2.20
2023-01-05T03:16:08.914Z,1.60
2023-01-05T03:21:02.919Z,1.73
2023-01-05T03:26:13.934Z,1.77
2023-01-05T03:31:28.557Z,1.55
2023-01-05T03:36:27.519Z,1.52
2023-01-05T03:41:23.380Z,1.95
2023-01-05T03:46:18.351Z,1.57
2023-01-05T03:51:09.872Z,1.60
2023-01-05T03:56:05.916Z,1.75
2023-01-05T04:00:56.960Z,2.00
2023-01-05T04:05:48.966Z,1.52
2023-01-05T04:10:40.539Z,1.55
2023-01-05T04:15:34.018Z,1.90
2023-01-05T04:20:40.178Z,1.38
2023-01-05T04:26:42.778Z,1.98
2023-01-05T04:31:36.043Z,1.40
2023-01-05T04:36:27.321Z,1.43
2023-01-05T04:41:20.383Z,1.65
2023-01-05T04:46:14.510Z,1.60
2023-01-05T04:51:09.960Z,2.00
2023-01-05T04:56:02.935Z,1.63
2023-01-05T05:01:27.455Z,1.73
2023-01-05T05:06:31.006Z,1.63
2023-01-05T05:11:23.637Z,1.65
2023-01-05T05:16:15.903Z,1.48
2023-01-05T05:21:09.002Z,2.28
2023-01-05T05:26:02.839Z,1.87
2023-01-05T05:30:54.863Z,1.45
2023-01-05T05:35:45.836Z,1.73
2023-01-05T05:40:36.901Z,2.30
2023-01-05T05:45:29.659Z,2.20
2023-01-05T05:50:20.379Z,1.63
2023-01-05T05:55:11.960Z,1.90
2023-01-05T06:00:03.256Z,2.55
2023-01-05T06:05:05.156Z,1.52
2023-01-05T06:09:55.881Z,2.25
2023-01-05T06:14:46.364Z,1.70
2023-01-05T06:19:37.513Z,1.73
2023-01-05T06:24:29.861Z,1.60
2023-01-05T06:29:20.677Z,1.70
2023-01-05T06:34:11.700Z,1.73
2023-01-05T06:39:02.659Z,1.60
2023-01-05T06:43:55.028Z,1.67
2023-01-05T06:48:45.944Z,2.08
2023-01-05T06:53:37.221Z,2.35
2023-01-05T06:58:28.295Z,1.75
2023-01-05T07:03:20.799Z,2.00
2023-01-05T07:08:11.855Z,2.28
2023-01-05T07:13:02.692Z,2.85
2023-01-05T07:17:53.829Z,2.43
2023-01-05T07:22:46.433Z,1.40
2023-01-05T07:27:37.564Z,2.28
2023-01-05T07:32:28.562Z,1.90
2023-01-05T07:37:20.103Z,1.85
2023-01-05T07:42:13.205Z,2.40
2023-01-05T07:47:05.715Z,2.10
2023-01-05T07:51:56.540Z,2.50
2023-01-05T07:56:47.277Z,2.13
2023-01-05T08:01:40.204Z,1.90
2023-01-05T08:06:31.038Z,2.30
2023-01-05T08:11:22.016Z,2.30
2023-01-05T08:16:13.228Z,2.55
2023-01-05T08:21:05.991Z,2.40
2023-01-05T08:25:57.124Z,2.20
2023-01-05T08:30:48.280Z,2.45
2023-01-05T08:35:41.874Z,2.35
2023-01-05T08:40:34.024Z,1.53
2023-01-05T08:45:24.677Z,2.47
2023-01-05T08:50:15.442Z,2.53
2023-01-05T08:55:07.920Z,2.77
2023-01-05T09:00:00.388Z,1.88
2023-01-05T09:04:51.032Z,1.90
2023-01-05T09:09:42.115Z,1.80
2023-01-05T09:14:33.127Z,1.73
2023-01-05T09:19:25.491Z,2.53
2023-01-05T09:24:17.553Z,1.80
2023-01-05T09:29:10.241Z,1.87
2023-01-05T09:34:04.523Z,1.60
2023-01-05T09:38:57.405Z,1.75
2023-01-05T09:43:49.854Z,1.63
2023-01-05T09:48:44.762Z,2.00
2023-01-05T09:53:36.075Z,1.95
2023-01-05T09:58:34.818Z,2.00
2023-01-05T10:04:02.579Z,1.77
2023-01-05T10:08:41.783Z,2.30
2023-01-05T10:13:36.889Z,1.80
2023-01-05T10:18:29.351Z,2.07
2023-01-05T10:23:50.917Z,1.70
2023-01-05T10:28:49.964Z,2.30
2023-01-05T10:33:54.430Z,2.10
2023-01-05T10:38:58.164Z,1.88
2023-01-05T10:44:08.295Z,1.80
2023-01-05T10:49:00.802Z,1.57
2023-01-05T10:53:51.816Z,1.60
2023-01-05T10:58:44.767Z,2.33
2023-01-05T11:04:24.014Z,2.20
2023-01-05T11:08:52.697Z,1.60
2023-01-05T11:13:49.122Z,1.85
2023-01-05T11:18:49.713Z,1.77
2023-01-05T11:23:43.289Z,1.47
2023-01-05T11:28:35.663Z,1.30
2023-01-05T11:33:29.474Z,1.80
2023-01-05T11:38:25.817Z,2.00
2023-01-05T11:43:48.215Z,2.05
2023-01-05T11:48:39.745Z,1.70
2023-01-05T11:53:40.417Z,1.40
2023-01-05T11:58:36.347Z,1.23
2023-01-05T12:03:44.776Z,1.50
2023-01-05T12:08:47.090Z,1.83
2023-01-05T12:14:01.470Z,1.70
2023-01-05T12:19:23.659Z,1.90
2023-01-05T12:24:34.388Z,1.42
2023-01-05T12:31:34.366Z,1.77
2023-01-05T12:35:40.316Z,1.75
2023-01-05T12:40:52.195Z,1.73
2023-01-05T12:46:09.921Z,2.28
2023-01-05T12:51:09.581Z,1.87
2023-01-05T12:56:28.007Z,2.33
2023-01-05T13:01:24.697Z,2.08
2023-01-05T13:06:19.356Z,2.17
2023-01-05T13:11:18.708Z,2.00
2023-01-05T13:16:15.137Z,2.00
2023-01-05T13:21:14.603Z,1.87
2023-01-05T13:26:08.998Z,1.50
2023-01-05T13:31:31.542Z,1.95
2023-01-05T13:36:38.138Z,2.05
2023-01-05T13:41:45.771Z,1.63
2023-01-05T13:46:56.789Z,2.00
2023-01-05T13:51:58.921Z,2.95
2023-01-05T13:56:51.201Z,2.03
2023-01-05T14:01:45.722Z,2.40
2023-01-05T14:06:38.726Z,2.60
2023-01-05T14:11:30.890Z,2.43
2023-01-05T14:16:49.540Z,2.75
2023-01-05T14:22:00.792Z,2.42
2023-01-05T14:27:03.647Z,2.70
2023-01-05T14:31:57.489Z,2.10
2023-01-05T14:37:03.666Z,2.75
2023-01-05T14:42:01.107Z,2.30
2023-01-05T14:46:54.557Z,2.40
2023-01-05T14:51:54.218Z,2.33
2023-01-05T14:57:36.094Z,2.05
2023-01-05T15:02:32.127Z,1.80
2023-01-05T15:07:34.868Z,1.35
2023-01-05T15:12:53.468Z,1.80
2023-01-05T15:18:08.940Z,1.15
2023-01-05T15:23:16.113Z,1.40
2023-01-05T15:28:28.794Z,1.45
2023-01-05T15:33:27.896Z,1.30
2023-01-05T15:38:24.284Z,1.30
2023-01-05T15:43:17.966Z,1.40
2023-01-05T15:48:11.164Z,1.58
2023-01-05T15:53:02.920Z,1.90
2023-01-05T15:57:55.909Z,1.58
2023-01-05T16:02:47.905Z,1.83
2023-01-05T16:07:43.359Z,1.70
2023-01-05T16:12:34.830Z,1.87
2023-01-05T16:17:26.876Z,1.85
2023-01-05T16:22:22.987Z,1.67
2023-01-05T16:27:14.848Z,1.83
2023-01-05T16:32:26.103Z,2.10
2023-01-05T16:37:19.778Z,2.00
2023-01-05T16:42:39.737Z,2.20
2023-01-05T16:47:38.960Z,2.10
2023-01-05T16:52:46.087Z,2.33
2023-01-05T16:57:42.633Z,2.33
2023-01-05T17:02:46.362Z,3.00
2023-01-05T17:07:40.890Z,2.60
2023-01-05T17:12:31.989Z,2.67
2023-01-05T17:17:24.600Z,2.70
2023-01-05T17:22:15.909Z,3.28
2023-01-05T17:32:06.968Z,3.83
2023-01-05T17:36:59.882Z,3.88
2023-01-05T17:41:51.113Z,4.45
2023-01-05T17:46:45.249Z,3.95
2023-01-05T17:51:35.993Z,4.10
2023-01-05T17:56:27.538Z,4.30
2023-01-05T18:01:18.396Z,4.38
2023-01-05T18:06:10.840Z,3.70
2023-01-05T18:11:03.225Z,3.65
2023-01-05T18:15:56.256Z,3.10
2023-01-05T18:20:46.846Z,3.50
2023-01-05T18:25:39.810Z,3.30
2023-01-05T18:30:31.106Z,2.55
2023-01-05T18:35:22.452Z,2.80
2023-01-05T18:40:14.147Z,2.40
2023-01-05T18:45:19.873Z,2.60
2023-01-05T18:50:16.940Z,2.40
2023-01-05T18:55:08.286Z,2.40
2023-01-05T19:00:00.130Z,2.58
2023-01-05T19:04:53.632Z,2.30
2023-01-05T19:09:44.466Z,2.07
2023-01-05T19:14:35.769Z,1.88
2023-01-05T19:26:38.541Z,1.90
2023-01-05T19:31:30.367Z,1.87
2023-01-05T19:36:24.444Z,1.90
2023-01-05T19:41:16.781Z,1.90
2023-01-05T19:46:12.066Z,2.30
2023-01-05T19:51:05.878Z,2.05
2023-01-05T19:56:02.677Z,2.20
2023-01-05T20:00:54.317Z,2.30
2023-01-05T20:05:46.647Z,2.45
2023-01-05T20:10:39.671Z,2.10
2023-01-05T20:15:30.781Z,2.10
2023-01-05T20:20:21.978Z,2.30
2023-01-05T20:25:13.922Z,2.10
2023-01-05T20:30:05.381Z,2.20
2023-01-05T20:35:00.238Z,1.90
2023-01-05T20:39:51.403Z,2.00
2023-01-05T20:44:46.069Z,1.98
2023-01-05T20:49:37.921Z,2.10
2023-01-05T20:54:29.137Z,1.75
2023-01-05T20:59:23.843Z,1.88
2023-01-05T21:04:19.883Z,1.85
2023-01-05T21:09:11.407Z,1.90
2023-01-05T21:14:03.756Z,2.20
2023-01-05T21:18:55.138Z,2.47
2023-01-05T21:23:49.141Z,2.60
2023-01-05T21:28:41.487Z,2.17
2023-01-05T21:33:33.113Z,2.30
2023-01-05T21:38:24.785Z,2.80
2023-01-05T21:43:19.857Z,2.67
2023-01-05T21:48:12.103Z,2.95
2023-01-05T21:53:22.523Z,2.80
2023-01-05T21:58:13.466Z,2.87
2023-01-05T22:03:05.794Z,2.90
2023-01-05T22:07:56.588Z,2.80
2023-01-05T22:12:47.734Z,3.17
2023-01-05T22:17:38.689Z,3.30
2023-01-05T22:22:31.104Z,3.28
2023-01-05T22:27:22.180Z,3.30
2023-01-05T22:32:13.396Z,3.20
2023-01-05T22:37:04.437Z,3.15
2023-01-05T22:41:56.952Z,3.28
2023-01-05T22:46:48.179Z,3.17
2023-01-05T22:51:41.148Z,3.33
2023-01-05T22:56:33.493Z,3.55
2023-01-05T23:01:29.095Z,3.83
2023-01-05T23:10:14.357Z,4.07
2023-01-05T23:14:38.390Z,3.88
2023-01-05T23:19:03.181Z,3.95
2023-01-05T23:23:27.955Z,3.83
2023-01-05T23:27:53.663Z,3.80
2023-01-05T23:32:17.460Z,3.95
2023-01-05T23:36:41.376Z,4.10
2023-01-05T23:41:08.202Z,4.82
2023-01-05T23:45:33.403Z,4.88
2023-01-05T23:49:57.250Z,5.47
2023-01-05T23:54:21.374Z,6.77
2023-01-05T23:58:45.263Z,5.43
